createdAt,value
2024-01-14T00:01:21.845Z,-16.62
2024-01-14T00:03:50.655Z,-15.49
2024-01-14T00:06:19.575Z,-15.80
2024-01-14T00:08:50.460Z,-15.44
2024-01-14T00:11:22.379Z,-15.62
2024-01-14T00:13:51.221Z,-15.51
2024-01-14T00:16:24.062Z,-15.53
2024-01-14T00:18:53.150Z,-15.47
2024-01-14T00:21:21.869Z,-15.48
2024-01-14T00:23:50.902Z,-15.50
2024-01-14T00:26:19.708Z,-15.52
2024-01-14T00:28:51.104Z,-15.52
2024-01-14T00:31:20.039Z,-15.52
2024-01-14T00:33:51.039Z,-15.87
2024-01-14T00:36:20.241Z,-15.58
2024-01-14T00:38:49.227Z,-15.57
2024-01-14T00:41:18.057Z,-17.42
2024-01-14T00:43:46.900Z,-16.15
2024-01-14T00:46:15.838Z,-15.58
2024-01-14T00:48:46.761Z,-16.02
2024-01-14T00:51:19.665Z,-15.58
2024-01-14T00:53:49.105Z,-15.60
2024-01-14T00:56:21.603Z,-15.59
2024-01-14T00:58:50.672Z,-15.60
2024-01-14T01:01:19.521Z,-15.68
2024-01-14T01:03:48.959Z,-15.65
2024-01-14T01:06:19.321Z,-15.85
2024-01-14T01:08:50.159Z,-16.45
2024-01-14T01:11:19.169Z,-15.62
2024-01-14T01:13:48.180Z,-15.62
2024-01-14T01:16:16.790Z,-15.64
2024-01-14T01:18:51.634Z,-15.67
2024-01-14T01:21:23.793Z,-15.73
2024-01-14T01:23:52.949Z,-15.67
2024-01-14T01:26:22.121Z,-15.69
2024-01-14T01:28:50.747Z,-15.69
2024-01-14T01:31:27.617Z,-15.80
2024-01-14T01:34:07.113Z,-15.72
2024-01-14T01:36:37.557Z,-15.71
2024-01-14T01:39:06.520Z,-16.20
2024-01-14T01:41:37.081Z,-15.70
2024-01-14T01:44:08.440Z,-15.82
2024-01-14T01:46:37.655Z,-15.69
2024-01-14T01:49:08.348Z,-15.69
2024-01-14T01:51:42.874Z,-15.82
2024-01-14T01:54:11.846Z,-15.77
2024-01-14T01:56:42.305Z,-15.77
2024-01-14T01:59:11.700Z,-15.90
2024-01-14T02:01:43.823Z,-15.65
2024-01-14T02:04:17.062Z,-15.67
2024-01-14T02:06:47.075Z,-15.98
2024-01-14T02:09:19.644Z,-15.65
2024-01-14T02:11:48.443Z,-15.65
2024-01-14T02:14:20.234Z,-15.93
2024-01-14T02:16:50.975Z,-15.68
2024-01-14T02:19:20.213Z,-15.82
2024-01-14T02:21:58.815Z,-16.12
2024-01-14T02:24:30.443Z,-15.67
2024-01-14T02:27:02.281Z,-15.70
2024-01-14T02:29:31.104Z,-15.70
2024-01-14T02:31:59.981Z,-15.68
2024-01-14T02:34:29.353Z,-15.74
2024-01-14T02:36:58.193Z,-15.69
2024-01-14T02:39:28.920Z,-15.71
2024-01-14T02:41:58.150Z,-15.71
2024-01-14T02:44:26.850Z,-15.72
2024-01-14T02:46:55.746Z,-15.70
2024-01-14T02:49:24.823Z,-15.68
2024-01-14T02:51:53.686Z,-15.79
2024-01-14T02:54:22.475Z,-16.54
2024-01-14T02:57:02.531Z,-15.65
2024-01-14T02:59:31.334Z,-15.65
2024-01-14T03:02:00.234Z,-15.66
2024-01-14T03:04:29.959Z,-15.64
2024-01-14T03:06:59.015Z,-15.67
2024-01-14T03:09:28.133Z,-15.58
2024-01-14T03:11:58.717Z,-15.58
2024-01-14T03:14:27.516Z,-15.63
2024-01-14T03:16:58.496Z,-15.68
2024-01-14T03:19:27.684Z,-15.54
2024-01-14T03:21:59.127Z,-15.55
2024-01-14T03:24:28.384Z,-15.50
2024-01-14T03:26:59.333Z,-15.48
2024-01-14T03:29:30.571Z,-15.50
2024-01-14T03:31:59.333Z,-15.51
2024-01-14T03:34:31.780Z,-15.55
2024-01-14T03:37:00.828Z,-15.93
2024-01-14T03:39:30.077Z,-15.79
2024-01-14T03:42:00.273Z,-15.54
2024-01-14T03:44:29.134Z,-15.55
2024-01-14T03:46:57.840Z,-15.52
2024-01-14T03:49:27.904Z,-15.51
2024-01-14T03:51:58.273Z,-15.46
2024-01-14T03:54:29.034Z,-15.45
2024-01-14T03:56:57.927Z,-15.40
2024-01-14T03:59:28.174Z,-15.36
2024-01-14T04:01:56.861Z,-15.33
2024-01-14T04:04:28.625Z,-15.30
2024-01-14T04:06:57.502Z,-15.29
2024-01-14T04:09:26.298Z,-15.43
2024-01-14T04:11:55.024Z,-15.28
2024-01-14T04:14:23.608Z,-15.23
2024-01-14T04:16:58.473Z,-15.17
2024-01-14T04:19:27.795Z,-15.11
2024-01-14T04:21:56.919Z,-15.12
2024-01-14T04:24:26.133Z,-15.09
2024-01-14T04:26:55.261Z,-15.06
2024-01-14T04:29:23.997Z,-15.03
2024-01-14T04:31:54.177Z,-14.99
2024-01-14T04:34:23.069Z,-14.99
2024-01-14T04:36:52.013Z,-14.93
2024-01-14T04:39:23.557Z,-14.90
2024-01-14T04:41:52.505Z,-15.87
2024-01-14T04:44:21.287Z,-15.88
2024-01-14T04:46:50.258Z,-14.81
2024-01-14T04:49:20.556Z,-14.77
2024-01-14T04:51:49.779Z,-14.70
2024-01-14T04:54:20.380Z,-14.71
2024-01-14T04:56:52.072Z,-14.89
2024-01-14T04:59:21.392Z,-14.85
2024-01-14T05:01:50.151Z,-14.79
2024-01-14T05:04:23.080Z,-14.70
2024-01-14T05:06:52.349Z,-14.69
2024-01-14T05:09:23.199Z,-14.69
2024-01-14T05:11:52.389Z,-15.76
2024-01-14T05:14:23.848Z,-14.82
2024-01-14T05:16:52.923Z,-14.67
2024-01-14T05:19:23.861Z,-14.67
2024-01-14T05:21:56.245Z,-14.69
2024-01-14T05:24:26.561Z,-14.84
2024-01-14T05:26:58.490Z,-14.77
2024-01-14T05:29:30.656Z,-14.64
2024-01-14T05:32:02.708Z,-16.37
2024-01-14T05:34:33.046Z,-14.66
2024-01-14T05:37:02.634Z,-14.64
2024-01-14T05:39:31.900Z,-14.94
2024-01-14T05:42:00.962Z,-14.75
2024-01-14T05:44:35.069Z,-14.77
2024-01-14T05:47:05.568Z,-14.76
2024-01-14T05:49:37.747Z,-15.60
2024-01-14T05:52:07.499Z,-14.64
2024-01-14T05:54:36.578Z,-14.89
2024-01-14T05:57:06.841Z,-14.65
2024-01-14T05:59:35.728Z,-14.63
2024-01-14T06:02:07.634Z,-14.76
2024-01-14T06:04:38.024Z,-14.64
2024-01-14T06:07:07.073Z,-14.63
2024-01-14T06:09:37.040Z,-15.75
2024-01-14T06:12:08.395Z,-14.96
2024-01-14T06:14:40.144Z,-14.66
2024-01-14T06:17:13.086Z,-14.67
2024-01-14T06:19:46.155Z,-15.80
2024-01-14T06:22:15.236Z,-15.14
2024-01-14T06:24:46.282Z,-14.67
2024-01-14T06:27:15.513Z,-14.63
2024-01-14T06:29:45.912Z,-15.55
2024-01-14T06:32:15.544Z,-14.63
2024-01-14T06:34:45.933Z,-14.63
2024-01-14T06:37:14.846Z,-14.93
2024-01-14T06:39:43.930Z,-14.60
2024-01-14T06:42:12.918Z,-15.27
2024-01-14T06:44:44.141Z,-14.63
2024-01-14T06:47:13.234Z,-14.92
2024-01-14T06:49:42.937Z,-14.61
2024-01-14T06:52:17.027Z,-14.61
2024-01-14T06:54:45.790Z,-14.62
2024-01-14T06:57:15.294Z,-14.63
2024-01-14T06:59:46.728Z,-14.67
2024-01-14T07:02:17.973Z,-14.85
2024-01-14T07:04:46.984Z,-14.80
2024-01-14T07:07:22.549Z,-14.85
2024-01-14T07:09:51.770Z,-14.76
2024-01-14T07:12:25.358Z,-15.29
2024-01-14T07:14:58.357Z,-14.79
2024-01-14T07:17:53.370Z,-15.09
2024-01-14T07:20:17.662Z,-14.82
2024-01-14T07:22:48.428Z,-14.89
2024-01-14T07:25:18.163Z,-14.89
2024-01-14T07:27:47.275Z,-14.98
2024-01-14T07:30:19.054Z,-14.87
2024-01-14T07:32:48.427Z,-14.84
2024-01-14T07:35:17.680Z,-15.03
2024-01-14T07:37:50.180Z,-15.17
2024-01-14T07:40:19.073Z,-14.82
2024-01-14T07:42:48.125Z,-14.90
2024-01-14T07:45:17.101Z,-15.79
2024-01-14T07:47:46.339Z,-15.93
2024-01-14T07:50:15.797Z,-15.86
2024-01-14T07:52:46.035Z,-15.24
2024-01-14T07:55:19.133Z,-14.93
2024-01-14T07:57:48.259Z,-15.86
2024-01-14T08:00:20.575Z,-15.63
2024-01-14T08:02:49.701Z,-14.88
2024-01-14T08:05:18.628Z,-14.87
2024-01-14T08:07:49.669Z,-14.89
2024-01-14T08:10:20.929Z,-14.79
2024-01-14T08:12:52.880Z,-14.81
2024-01-14T08:15:22.007Z,-14.67
2024-01-14T08:17:51.745Z,-14.61
2024-01-14T08:20:21.287Z,-14.68
2024-01-14T08:22:50.592Z,-14.82
2024-01-14T08:25:21.100Z,-14.54
2024-01-14T08:27:54.653Z,-14.43
2024-01-14T08:30:23.911Z,-14.39
2024-01-14T08:32:56.204Z,-14.34
2024-01-14T08:35:26.325Z,-14.25
2024-01-14T08:37:55.435Z,-15.40
2024-01-14T08:40:30.150Z,-14.84
2024-01-14T08:42:59.267Z,-14.27
2024-01-14T08:45:29.193Z,-14.04
2024-01-14T08:47:58.225Z,-14.12
2024-01-14T08:50:27.201Z,-12.51
2024-01-14T08:52:58.974Z,-12.29
2024-01-14T08:55:32.799Z,-12.12
2024-01-14T08:58:03.061Z,-12.67
2024-01-14T09:00:35.183Z,-12.64
2024-01-14T09:03:05.107Z,-12.60
2024-01-14T09:05:36.141Z,-12.17
2024-01-14T09:08:05.425Z,-11.13
2024-01-14T09:10:40.008Z,-10.94
2024-01-14T09:13:09.069Z,-12.08
2024-01-14T09:15:41.540Z,-10.93
2024-01-14T09:18:10.779Z,-11.10
2024-01-14T09:20:39.662Z,-11.41
2024-01-14T09:23:08.931Z,-11.56
2024-01-14T09:25:39.202Z,-11.83
2024-01-14T09:28:08.955Z,-12.21
2024-01-14T09:30:41.480Z,-12.48
2024-01-14T09:33:11.281Z,-14.12
2024-01-14T09:35:47.073Z,-13.64
2024-01-14T09:38:16.976Z,-14.74
2024-01-14T09:40:53.125Z,-13.27
2024-01-14T09:43:27.002Z,-13.78
2024-01-14T09:46:05.650Z,-13.81
2024-01-14T09:48:35.082Z,-14.57
2024-01-14T09:51:05.500Z,-14.83
2024-01-14T09:53:37.240Z,-15.06
2024-01-14T09:56:14.899Z,-14.42
2024-01-14T09:58:46.525Z,-14.67
2024-01-14T10:01:19.602Z,-15.20
2024-01-14T10:03:52.941Z,-14.56
2024-01-14T10:06:27.529Z,-14.59
2024-01-14T10:09:00.202Z,-15.23
2024-01-14T10:11:31.250Z,-15.25
2024-01-14T10:14:01.094Z,-14.95
2024-01-14T10:16:51.475Z,-14.54
2024-01-14T10:19:24.950Z,-13.67
2024-01-14T10:22:14.282Z,-13.93
2024-01-14T10:24:53.174Z,-13.76
2024-01-14T10:27:35.296Z,-13.79
2024-01-14T10:30:14.558Z,-13.80
2024-01-14T10:33:17.486Z,-13.96
2024-01-14T10:35:36.753Z,-14.38
2024-01-14T10:38:15.142Z,-13.82
2024-01-14T10:40:45.034Z,-13.86
2024-01-14T10:43:15.547Z,-13.78
2024-01-14T10:45:49.238Z,-13.83
2024-01-14T10:48:26.169Z,-13.72
2024-01-14T10:50:59.438Z,-13.94
2024-01-14T10:53:36.600Z,-14.72
2024-01-14T10:56:09.683Z,-14.32
2024-01-14T10:58:46.919Z,-13.81
2024-01-14T11:01:19.176Z,-15.01
2024-01-14T11:03:51.452Z,-13.60
2024-01-14T11:06:23.603Z,-13.98
2024-01-14T11:08:56.518Z,-14.86
2024-01-14T11:11:35.385Z,-13.63
2024-01-14T11:14:15.689Z,-13.83
2024-01-14T11:17:07.958Z,-14.18
2024-01-14T11:19:39.784Z,-14.12
2024-01-14T11:22:33.279Z,-13.41
2024-01-14T11:25:08.627Z,-13.36
2024-01-14T11:27:37.937Z,-13.75
2024-01-14T11:30:15.850Z,-13.33
2024-01-14T11:32:46.153Z,-13.52
2024-01-14T11:35:45.526Z,-15.08
2024-01-14T11:38:35.758Z,-14.81
2024-01-14T11:41:27.796Z,-13.32
2024-01-14T11:44:01.590Z,-13.54
2024-01-14T11:46:51.139Z,-13.34
2024-01-14T11:49:25.299Z,-13.33
2024-01-14T11:51:59.717Z,-13.29
2024-01-14T11:54:29.836Z,-13.28
2024-01-14T11:57:03.683Z,-13.59
2024-01-14T11:59:41.444Z,-13.28
2024-01-14T12:02:20.505Z,-13.26
2024-01-14T12:04:55.464Z,-14.04
2024-01-14T12:07:32.308Z,-14.51
2024-01-14T12:10:02.959Z,-14.23
2024-01-14T12:12:32.355Z,-13.23
2024-01-14T12:15:06.413Z,-14.17
2024-01-14T12:17:39.838Z,-14.94
2024-01-14T12:20:14.255Z,-14.57
2024-01-14T12:22:43.337Z,-14.81
2024-01-14T12:25:12.898Z,-14.81
2024-01-14T12:27:44.759Z,-14.27
2024-01-14T12:30:28.429Z,-13.94
2024-01-14T12:32:59.945Z,-14.80
2024-01-14T12:35:42.782Z,-13.25
2024-01-14T12:38:11.881Z,-13.75
2024-01-14T12:40:45.806Z,-13.04
2024-01-14T12:43:18.506Z,-12.98
2024-01-14T12:45:53.711Z,-13.05
2024-01-14T12:48:26.405Z,-12.93
2024-01-14T12:50:58.832Z,-13.14
2024-01-14T12:53:33.107Z,-13.00
2024-01-14T12:56:18.258Z,-13.14
2024-01-14T12:58:47.249Z,-13.98
2024-01-14T13:01:18.793Z,-13.02
2024-01-14T13:03:49.813Z,-13.41
2024-01-14T13:06:21.879Z,-12.97
2024-01-14T13:09:01.334Z,-12.96
2024-01-14T13:11:30.419Z,-13.74
2024-01-14T13:14:00.907Z,-13.08
2024-01-14T13:16:38.295Z,-12.98
2024-01-14T13:19:12.445Z,-12.98
2024-01-14T13:21:41.776Z,-13.04
2024-01-14T13:24:13.983Z,-13.13
2024-01-14T13:26:43.779Z,-12.99
2024-01-14T13:29:15.147Z,-13.33
2024-01-14T13:31:47.231Z,-13.02
2024-01-14T13:34:17.945Z,-13.13
2024-01-14T13:36:55.813Z,-13.13
2024-01-14T13:39:24.650Z,-13.58
2024-01-14T13:42:03.138Z,-13.11
2024-01-14T13:44:32.510Z,-13.29
2024-01-14T13:47:04.438Z,-13.18
2024-01-14T13:49:35.949Z,-13.16
2024-01-14T13:52:05.401Z,-13.60
2024-01-14T13:54:35.791Z,-13.34
2024-01-14T13:57:07.443Z,-13.15
2024-01-14T13:59:36.479Z,-13.14
2024-01-14T14:02:09.328Z,-13.12
2024-01-14T14:04:40.625Z,-13.43
2024-01-14T14:07:24.714Z,-13.23
2024-01-14T14:09:56.056Z,-13.40
2024-01-14T14:12:31.637Z,-13.13
2024-01-14T14:15:03.332Z,-13.39
2024-01-14T14:17:34.341Z,-13.13
2024-01-14T14:22:55.882Z,-13.47
2024-01-14T14:25:27.128Z,-13.83
2024-01-14T14:27:56.181Z,-13.39
2024-01-14T14:30:27.795Z,-13.15
2024-01-14T14:32:56.859Z,-13.12
2024-01-14T14:35:27.095Z,-13.18
2024-01-14T14:37:56.184Z,-13.11
2024-01-14T14:40:25.253Z,-13.33
2024-01-14T14:42:55.985Z,-13.22
2024-01-14T14:45:25.415Z,-13.13
2024-01-14T14:47:54.053Z,-13.13
2024-01-14T14:50:23.851Z,-13.14
2024-01-14T14:52:56.874Z,-13.34
2024-01-14T14:55:27.643Z,-13.15
2024-01-14T14:57:58.487Z,-13.20
2024-01-14T15:00:27.770Z,-13.21
2024-01-14T15:02:56.507Z,-13.20
2024-01-14T15:05:30.380Z,-13.42
2024-01-14T15:08:02.692Z,-13.25
2024-01-14T15:10:31.320Z,-13.25
2024-01-14T15:13:00.270Z,-13.27
2024-01-14T15:15:33.647Z,-13.51
2024-01-14T15:18:02.722Z,-13.27
2024-01-14T15:20:47.991Z,-13.44
2024-01-14T15:23:29.678Z,-13.49
2024-01-14T15:25:59.408Z,-13.64
2024-01-14T15:28:29.177Z,-15.09
2024-01-14T15:31:07.472Z,-13.52
2024-01-14T15:33:40.503Z,-15.06
2024-01-14T15:36:10.832Z,-13.31
2024-01-14T15:38:44.269Z,-13.29
2024-01-14T15:41:35.498Z,-14.38
2024-01-14T15:44:13.188Z,-14.11
2024-01-14T15:49:39.324Z,-13.27
2024-01-14T15:52:08.545Z,-13.56
2024-01-14T15:54:49.205Z,-13.62
2024-01-14T15:57:38.862Z,-13.25
2024-01-14T16:00:09.064Z,-13.28
2024-01-14T16:02:38.223Z,-14.93
2024-01-14T16:05:07.771Z,-13.29
2024-01-14T16:07:37.108Z,-13.44
2024-01-14T16:10:12.221Z,-14.25
2024-01-14T16:12:41.266Z,-14.76
2024-01-14T16:15:11.084Z,-14.40
2024-01-14T16:17:39.979Z,-13.37
2024-01-14T16:20:10.380Z,-13.49
2024-01-14T16:22:39.506Z,-14.78
2024-01-14T16:25:12.725Z,-13.35
2024-01-14T16:27:42.298Z,-14.89
2024-01-14T16:30:14.054Z,-13.17
2024-01-14T16:32:46.521Z,-14.03
2024-01-14T16:35:17.929Z,-14.45
2024-01-14T16:37:47.193Z,-13.10
2024-01-14T16:40:20.233Z,-13.08
2024-01-14T16:42:51.672Z,-13.79
2024-01-14T16:45:22.710Z,-14.19
2024-01-14T16:47:51.973Z,-14.36
2024-01-14T16:50:25.081Z,-14.27
2024-01-14T16:52:58.192Z,-14.30
2024-01-14T16:55:28.861Z,-14.47
2024-01-14T16:57:59.406Z,-14.79
2024-01-14T17:00:28.484Z,-14.82
2024-01-14T17:02:57.438Z,-14.54
2024-01-14T17:05:26.297Z,-13.01
2024-01-14T17:07:58.179Z,-13.70
2024-01-14T17:10:28.932Z,-12.89
2024-01-14T17:12:58.767Z,-13.00
2024-01-14T17:15:27.590Z,-12.86
2024-01-14T17:17:58.463Z,-12.87
2024-01-14T17:20:28.392Z,-13.02
2024-01-14T17:22:59.654Z,-12.82
2024-01-14T17:25:34.580Z,-12.79
2024-01-14T17:28:03.459Z,-12.80
2024-01-14T17:30:32.230Z,-12.77
2024-01-14T17:33:01.504Z,-12.76
2024-01-14T17:35:32.430Z,-12.84
2024-01-14T17:38:01.068Z,-12.94
2024-01-14T17:40:32.327Z,-12.71
2024-01-14T17:43:02.644Z,-12.71
2024-01-14T17:45:34.427Z,-12.99
2024-01-14T17:48:04.614Z,-12.66
2024-01-14T17:50:33.589Z,-12.66
2024-01-14T17:53:06.144Z,-12.65
2024-01-14T17:55:35.024Z,-12.68
2024-01-14T17:58:05.946Z,-12.72
2024-01-14T18:00:34.861Z,-12.74
2024-01-14T18:03:05.767Z,-12.74
2024-01-14T18:05:34.913Z,-12.72
2024-01-14T18:08:10.640Z,-12.70
2024-01-14T18:10:40.874Z,-12.69
2024-01-14T18:13:15.224Z,-12.69
2024-01-14T18:15:48.334Z,-12.86
2024-01-14T18:18:18.328Z,-12.89
2024-01-14T18:20:47.327Z,-12.67
2024-01-14T18:23:18.870Z,-12.65
2024-01-14T18:25:47.698Z,-12.63
2024-01-14T18:28:18.056Z,-12.69
2024-01-14T18:30:46.965Z,-12.66
2024-01-14T18:33:18.243Z,-12.65
2024-01-14T18:35:47.878Z,-12.64
2024-01-14T18:38:25.892Z,-13.64
2024-01-14T18:40:55.894Z,-14.40
2024-01-14T18:43:29.648Z,-13.34
2024-01-14T18:45:59.024Z,-12.69
2024-01-14T18:48:29.391Z,-12.88
2024-01-14T18:50:58.377Z,-12.54
2024-01-14T18:53:32.624Z,-13.64
2024-01-14T18:56:01.735Z,-12.54
2024-01-14T18:58:35.270Z,-13.27
2024-01-14T19:01:09.114Z,-13.68
2024-01-14T19:03:39.610Z,-13.60
2024-01-14T19:06:11.273Z,-12.84
2024-01-14T19:08:43.313Z,-13.40
2024-01-14T19:11:16.717Z,-12.67
2024-01-14T19:13:50.726Z,-12.45
2024-01-14T19:16:19.724Z,-12.45
2024-01-14T19:18:51.947Z,-12.62
2024-01-14T19:21:21.362Z,-13.40
2024-01-14T19:23:52.064Z,-13.13
2024-01-14T19:26:20.764Z,-13.92
2024-01-14T19:28:53.644Z,-12.36
2024-01-14T19:31:23.393Z,-12.42
2024-01-14T19:33:54.198Z,-12.35
2024-01-14T19:36:26.849Z,-12.33
2024-01-14T19:38:55.994Z,-12.43
2024-01-14T19:41:25.158Z,-12.28
2024-01-14T19:43:55.312Z,-12.28
2024-01-14T19:46:24.151Z,-12.27
2024-01-14T19:48:57.564Z,-12.24
2024-01-14T19:51:26.790Z,-12.29
2024-01-14T19:53:55.559Z,-12.22
2024-01-14T19:56:29.480Z,-12.61
2024-01-14T19:59:00.480Z,-12.21
2024-01-14T20:01:32.396Z,-12.18
2024-01-14T20:04:01.553Z,-12.17
2024-01-14T20:06:30.848Z,-12.16
2024-01-14T20:09:04.310Z,-12.12
2024-01-14T20:11:33.182Z,-12.15
2024-01-14T20:14:04.290Z,-12.12
2024-01-14T20:16:33.062Z,-12.23
2024-01-14T20:19:03.268Z,-12.10
2024-01-14T20:21:32.185Z,-12.33
2024-01-14T20:24:03.322Z,-12.04
2024-01-14T20:26:32.251Z,-12.05
2024-01-14T20:29:02.387Z,-12.05
2024-01-14T20:31:31.230Z,-12.09
2024-01-14T20:34:01.328Z,-12.00
2024-01-14T20:36:30.850Z,-12.49
2024-01-14T20:39:02.958Z,-11.98
2024-01-14T20:41:34.528Z,-11.95
2024-01-14T20:44:04.691Z,-12.23
2024-01-14T20:46:33.481Z,-12.21
2024-01-14T20:49:05.532Z,-12.00
2024-01-14T20:51:37.936Z,-11.92
2024-01-14T20:54:07.361Z,-11.95
2024-01-14T20:56:37.231Z,-11.83
2024-01-14T20:59:11.348Z,-11.93
2024-01-14T21:01:40.118Z,-12.04
2024-01-14T21:04:11.651Z,-11.77
2024-01-14T21:06:44.863Z,-11.74
2024-01-14T21:09:14.349Z,-11.92
2024-01-14T21:11:43.176Z,-11.73
2024-01-14T21:14:16.236Z,-11.74
2024-01-14T21:16:44.977Z,-11.72
2024-01-14T21:19:13.716Z,-11.73
2024-01-14T21:21:45.367Z,-11.78
2024-01-14T21:24:18.786Z,-11.82
2024-01-14T21:26:48.563Z,-11.77
2024-01-14T21:29:19.718Z,-11.81
2024-01-14T21:31:50.560Z,-11.74
2024-01-14T21:34:19.662Z,-11.78
2024-01-14T21:36:48.329Z,-11.78
2024-01-14T21:39:17.375Z,-11.80
2024-01-14T21:41:46.416Z,-12.18
2024-01-14T21:44:15.248Z,-11.83
2024-01-14T21:46:48.315Z,-11.82
2024-01-14T21:49:17.601Z,-12.02
2024-01-14T21:51:48.871Z,-11.89
2024-01-14T21:54:17.975Z,-11.84
2024-01-14T21:56:46.962Z,-12.08
2024-01-14T21:59:18.470Z,-11.81
2024-01-14T22:01:48.532Z,-11.95
2024-01-14T22:04:19.201Z,-12.00
2024-01-14T22:06:48.070Z,-11.98
2024-01-14T22:09:16.674Z,-11.74
2024-01-14T22:11:49.701Z,-11.73
2024-01-14T22:14:20.899Z,-11.81
2024-01-14T22:16:51.053Z,-11.86
2024-01-14T22:19:19.959Z,-11.74
2024-01-14T22:21:53.230Z,-11.71
2024-01-14T22:24:26.072Z,-11.74
2024-01-14T22:26:54.713Z,-11.74
2024-01-14T22:29:27.444Z,-11.94
2024-01-14T22:31:59.287Z,-11.91
2024-01-14T22:34:29.527Z,-11.71
2024-01-14T22:36:58.344Z,-11.70
2024-01-14T22:39:27.799Z,-11.72
2024-01-14T22:41:56.920Z,-11.71
2024-01-14T22:44:25.848Z,-11.92
2024-01-14T22:46:55.978Z,-11.75
2024-01-14T22:49:26.065Z,-12.00
2024-01-14T22:51:54.880Z,-11.77
2024-01-14T22:54:25.789Z,-11.78
2024-01-14T22:56:54.451Z,-11.75
2024-01-14T22:59:23.430Z,-11.74
2024-01-14T23:01:55.014Z,-11.71
2024-01-14T23:04:25.917Z,-11.72
2024-01-14T23:06:56.534Z,-11.94
2024-01-14T23:09:27.741Z,-11.68
2024-01-14T23:11:56.480Z,-11.67
2024-01-14T23:14:26.428Z,-11.66
2024-01-14T23:16:55.526Z,-11.68
2024-01-14T23:19:24.266Z,-11.79
2024-01-14T23:21:53.671Z,-11.67
2024-01-14T23:24:24.234Z,-11.66
2024-01-14T23:26:53.026Z,-11.65
2024-01-14T23:29:22.119Z,-11.66
2024-01-14T23:31:51.042Z,-11.75
2024-01-14T23:34:20.014Z,-11.65
2024-01-14T23:36:49.407Z,-11.68
2024-01-14T23:39:18.211Z,-11.68
2024-01-14T23:41:48.612Z,-11.75
2024-01-14T23:44:17.451Z,-12.06
2024-01-14T23:46:46.320Z,-11.67
2024-01-14T23:49:15.547Z,-11.68
2024-01-14T23:51:44.359Z,-11.68
2024-01-14T23:54:13.723Z,-11.66
2024-01-14T23:56:42.536Z,-11.66
2024-01-14T23:59:13.103Z,-11.63
